Time;durP1;ratioP1;P1;durP2;ratioP2;P2;SDS_P1;SDS_P2;PMS_P1;PMS_P2;Temp;Humidity;BMP_temperature;BMP_pressure;BME280_temperature;BME280_humidity;BME280_pressure;Samples;Min_cycle;Max_cycle;Signal;HPM_P1;HPM_P2
2021/08/16 00:02:07;;;;;;;12.82;7.85;;;589.20;2355.20;;;;;;5017330;28;20022;-84
2021/08/16 00:04:33;;;;;;;10.52;7.95;;;589.40;2355.20;;;;;;5018765;28;20025;-83
2021/08/16 00:06:59;;;;;;;11.40;8.90;;;589.20;2380.80;;;;;;5019313;28;20032;-85
2021/08/16 00:09:25;;;;;;;12.27;7.68;;;589.20;2380.80;;;;;;5018799;28;20477;-87
2021/08/16 00:11:51;;;;;;;11.40;8.38;;;;;;;;;;5036092;28;20017;-85
2021/08/16 00:14:17;;;;;;;10.93;8.10;;;588.90;2406.40;;;;;;5018830;28;20025;-85
2021/08/16 00:16:43;;;;;;;13.75;8.02;;;588.80;2406.40;;;;;;5018451;28;20037;-85
2021/08/16 00:19:08;;;;;;;11.25;8.02;;;588.80;2406.40;;;;;;5018754;28;20375;-85
2021/08/16 00:21:34;;;;;;;15.52;8.88;;;564.00;2432.00;;;;;;5018881;28;20018;-84
2021/08/16 00:24:00;;;;;;;17.38;9.10;;;563.80;2432.00;;;;;;5017890;28;20451;-83
2021/08/16 00:26:26;;;;;;;9.90;8.20;;;563.90;2432.00;;;;;;5018495;28;20028;-84
2021/08/16 00:28:52;;;;;;;11.82;8.80;;;563.90;2432.00;;;;;;5018688;28;20021;-85
2021/08/16 00:31:17;;;;;;;10.88;8.38;;;564.10;2432.00;;;;;;5018202;28;20021;-84
2021/08/16 00:33:43;;;;;;;11.38;7.95;;;563.80;2432.00;;;;;;5018707;28;20164;-83
2021/08/16 00:36:09;;;;;;;13.23;8.07;;;563.70;2432.00;;;;;;5018212;28;20501;-83
2021/08/16 00:38:35;;;;;;;11.55;7.70;;;563.70;2432.00;;;;;;5017557;28;20026;-86
2021/08/16 00:41:01;;;;;;;11.18;7.32;;;563.70;2432.00;;;;;;5017585;28;20076;-87
2021/08/16 00:43:27;;;;;;;13.18;7.93;;;563.90;2432.00;;;;;;5017487;28;20021;-87
2021/08/16 00:45:53;;;;;;;13.13;7.43;;;563.90;2432.00;;;;;;5017860;28;20455;-86
2021/08/16 00:48:19;;;;;;;11.80;8.05;;;563.80;2432.00;;;;;;5025981;28;20052;-86
2021/08/16 00:50:46;;;;;;;10.95;8.52;;;563.80;2432.00;;;;;;5033856;28;20109;-84
2021/08/16 00:53:14;;;;;;;9.98;7.45;;;563.90;2432.00;;;;;;5034645;28;20036;-84
2021/08/16 00:55:40;;;;;;;15.70;8.90;;;564.00;2432.00;;;;;;5034126;28;20529;-83
2021/08/16 00:58:06;;;;;;;12.93;7.43;;;563.90;2432.00;;;;;;5039731;28;20017;-82
2021/08/16 01:00:31;;;;;;;12.00;7.53;;;564.10;2432.00;;;;;;5050427;28;20032;-83
2021/08/16 01:02:57;;;;;;;9.20;7.28;;;564.00;2432.00;;;;;;5049116;28;20036;-84
2021/08/16 01:05:23;;;;;;;12.00;7.97;;;564.00;2432.00;;;;;;5040273;28;20029;-84
2021/08/16 01:07:49;;;;;;;16.80;8.52;;;564.00;2432.00;;;;;;5034093;28;20053;-84
2021/08/16 01:10:22;;;;;;;13.57;7.97;;;563.90;2432.00;;;;;;5034232;28;20025;-83
2021/08/16 01:12:48;;;;;;;10.73;8.77;;;563.80;2432.00;;;;;;5033562;28;20075;-84
2021/08/16 01:15:15;;;;;;;9.77;8.07;;;563.90;2432.00;;;;;;5034121;28;20033;-84
2021/08/16 01:17:42;;;;;;;9.05;7.43;;;563.70;2432.00;;;;;;5033754;28;20053;-85
2021/08/16 01:20:10;;;;;;;12.73;8.35;;;563.60;2432.00;;;;;;5033743;28;20039;-83
2021/08/16 01:22:37;;;;;;;11.43;8.02;;;563.70;2432.00;;;;;;5033644;28;20056;-83
2021/08/16 01:25:05;;;;;;;11.32;7.50;;;563.60;2432.00;;;;;;5033962;28;20052;-86
2021/08/16 01:27:31;;;;;;;10.98;7.78;;;563.60;2432.00;;;;;;5033847;28;20049;-86
2021/08/16 01:29:58;;;;;;;11.27;7.78;;;563.60;2432.00;;;;;;5033635;28;20064;-83
2021/08/16 01:32:24;;;;;;;10.75;7.70;;;563.20;2432.00;;;;;;5033616;28;20052;-83
2021/08/16 01:34:49;;;;;;;11.05;8.38;;;563.20;2432.00;;;;;;5033656;28;20057;-84
2021/08/16 01:37:15;;;;;;;17.67;8.82;;;563.20;2432.00;;;;;;5034630;28;20517;-83
2021/08/16 01:39:41;;;;;;;13.32;8.27;;;563.20;2432.00;;;;;;5033094;28;20044;-83
2021/08/16 01:42:07;;;;;;;14.80;8.82;;;538.50;2406.40;;;;;;5033143;28;20124;-84
2021/08/16 01:44:33;;;;;;;12.93;8.75;;;;;;;;;;5033121;28;20116;-84
2021/08/16 01:46:59;;;;;;;12.85;8.95;;;538.50;2406.40;;;;;;5032753;28;20467;-83
2021/08/16 01:49:24;;;;;;;15.25;8.70;;;538.30;2406.40;;;;;;5017148;28;20025;-85
2021/08/16 01:51:50;;;;;;;13.10;8.25;;;538.40;2406.40;;;;;;5016672;28;20156;-84
2021/08/16 01:54:17;;;;;;;13.82;8.70;;;538.10;2406.40;;;;;;5016532;28;20474;-84
2021/08/16 01:56:43;;;;;;;14.98;8.65;;;538.00;2406.40;;;;;;5016806;28;20383;-84
2021/08/16 01:59:10;;;;;;;12.07;8.65;;;537.60;2406.40;;;;;;5016537;28;20080;-85
2021/08/16 02:01:36;;;;;;;13.10;8.75;;;537.80;2406.40;;;;;;5016808;28;20024;-84
2021/08/16 02:04:02;;;;;;;11.55;8.27;;;537.80;2406.40;;;;;;5016558;28;20026;-84
2021/08/16 02:06:28;;;;;;;12.15;9.60;;;537.80;2406.40;;;;;;5016507;28;20022;-86
2021/08/16 02:08:55;;;;;;;14.48;10.10;;;537.60;2406.40;;;;;;5016406;28;20101;-85
2021/08/16 02:11:21;;;;;;;10.85;8.68;;;537.60;2406.40;;;;;;5034058;28;20029;-85
2021/08/16 02:13:47;;;;;;;10.43;8.55;;;537.70;2406.40;;;;;;5016562;28;20087;-83
2021/08/16 02:16:13;;;;;;;10.32;8.35;;;537.90;2406.40;;;;;;5016385;28;20033;-84
2021/08/16 02:18:39;;;;;;;10.30;8.63;;;538.00;2406.40;;;;;;5016520;28;20025;-83
2021/08/16 02:21:05;;;;;;;11.93;8.45;;;537.90;2406.40;;;;;;5016644;28;20032;-85
2021/08/16 02:23:30;;;;;;;11.65;8.45;;;537.90;2406.40;;;;;;5016944;28;20021;-82
2021/08/16 02:25:56;;;;;;;10.48;7.95;;;537.70;2406.40;;;;;;5043252;28;20030;-79
2021/08/16 02:28:22;;;;;;;12.00;9.00;;;512.90;2380.80;;;;;;5045882;28;20017;-79
2021/08/16 02:30:48;;;;;;;11.32;8.27;;;512.90;2380.80;;;;;;5028372;28;20403;-80
2021/08/16 02:33:15;;;;;;;14.90;7.80;;;537.70;2406.40;;;;;;5028293;28;20482;-80
2021/08/16 02:35:42;;;;;;;11.45;8.50;;;537.90;2406.40;;;;;;5028453;28;20025;-80
2021/08/16 02:38:10;;;;;;;11.45;7.13;;;538.00;2406.40;;;;;;5027221;28;20044;-79
2021/08/16 02:40:36;;;;;;;12.68;8.00;;;538.30;2406.40;;;;;;5045159;28;20017;-81
2021/08/16 02:43:02;;;;;;;10.43;8.32;;;538.30;2406.40;;;;;;5027395;28;20075;-79
2021/08/16 02:45:28;;;;;;;13.70;8.75;;;538.30;2406.40;;;;;;5028431;28;20029;-79
2021/08/16 02:47:54;;;;;;;11.70;8.00;;;537.90;2406.40;;;;;;5032879;28;20049;-80
2021/08/16 02:50:20;;;;;;;15.13;8.10;;;538.00;2406.40;;;;;;5043203;28;20021;-80
2021/08/16 02:52:46;;;;;;;13.57;8.43;;;538.00;2406.40;;;;;;5044194;28;20018;-79
2021/08/16 02:55:12;;;;;;;12.30;8.77;;;538.00;2406.40;;;;;;5044827;28;20032;-79
2021/08/16 02:57:38;;;;;;;12.95;8.18;;;538.00;2406.40;;;;;;5044308;28;20128;-79
2021/08/16 03:00:06;;;;;;;14.55;9.20;;;537.60;2406.40;;;;;;5043753;28;20099;-79
2021/08/16 03:02:32;;;;;;;11.13;8.02;;;512.90;2380.80;;;;;;5044495;28;20028;-79
2021/08/16 03:04:57;;;;;;;13.15;7.93;;;512.90;2380.80;;;;;;5044391;28;20049;-79
2021/08/16 03:07:23;;;;;;;12.73;8.95;;;537.60;2406.40;;;;;;5043011;28;20026;-81
2021/08/16 03:09:50;;;;;;;11.70;8.63;;;512.50;2380.80;;;;;;5036479;28;20048;-84
2021/08/16 03:12:17;;;;;;;10.95;8.35;;;512.50;2380.80;;;;;;5036089;28;20091;-82
2021/08/16 03:14:42;;;;;;;12.07;8.05;;;512.70;2380.80;;;;;;5035924;28;20033;-83
2021/08/16 03:17:08;;;;;;;16.02;10.27;;;512.90;2380.80;;;;;;5035950;28;20120;-84
2021/08/16 03:19:34;;;;;;;15.63;8.77;;;512.90;2380.80;;;;;;5036069;28;20024;-85
2021/08/16 03:22:00;;;;;;;14.73;9.13;;;512.70;2380.80;;;;;;5036415;28;20026;-83
2021/08/16 03:24:26;;;;;;;11.10;9.02;;;512.50;2380.80;;;;;;5035907;28;20029;-83
2021/08/16 03:26:52;;;;;;;15.60;9.80;;;512.20;2380.80;;;;;;5036453;28;20025;-86
2021/08/16 03:29:18;;;;;;;12.20;9.00;;;512.30;2380.80;;;;;;5036183;28;20366;-85
2021/08/16 03:31:44;;;;;;;15.98;10.13;;;512.50;2380.80;;;;;;5035424;28;20025;-85
2021/08/16 03:34:11;;;;;;;15.18;8.98;;;512.40;2380.80;;;;;;5036174;28;20025;-84
2021/08/16 03:36:37;;;;;;;12.15;8.63;;;512.60;2380.80;;;;;;5035278;28;20036;-82
2021/08/16 03:39:03;;;;;;;12.27;8.77;;;512.60;2380.80;;;;;;5035781;28;20062;-83
2021/08/16 03:41:29;;;;;;;14.68;9.48;;;512.60;2380.80;;;;;;5035825;28;20021;-85
2021/08/16 03:43:55;;;;;;;12.82;8.85;;;512.30;2380.80;;;;;;5037257;28;20033;-84
2021/08/16 03:46:21;;;;;;;12.32;8.60;;;512.30;2380.80;;;;;;5035795;28;20021;-86
2021/08/16 03:48:46;;;;;;;13.20;9.02;;;512.10;2380.80;;;;;;5035441;28;20049;-83
2021/08/16 03:51:12;;;;;;;13.45;9.27;;;487.30;2380.80;;;;;;5035361;28;20651;-84
2021/08/16 03:53:39;;;;;;;13.27;10.20;;;;;;;;;;5035349;28;20017;-84
2021/08/16 03:56:04;;;;;;;15.65;10.45;;;512.00;2380.80;;;;;;5035301;28;20026;-84
2021/08/16 03:58:30;;;;;;;14.02;9.05;;;487.10;2380.80;;;;;;5036204;28;20375;-85
2021/08/16 04:00:56;;;;;;;12.65;9.55;;;512.00;2380.80;;;;;;5034968;28;20025;-84
2021/08/16 04:03:22;;;;;;;12.88;9.05;;;487.30;2380.80;;;;;;5036446;28;20092;-87
2021/08/16 04:05:48;;;;;;;12.20;9.00;;;487.30;2380.80;;;;;;5035214;28;20053;-86
2021/08/16 04:08:14;;;;;;;13.13;9.40;;;512.10;2380.80;;;;;;5035023;28;20049;-86
2021/08/16 04:10:40;;;;;;;15.20;9.23;;;487.20;2380.80;;;;;;5035072;28;20517;-84
2021/08/16 04:13:05;;;;;;;12.68;8.80;;;487.30;2380.80;;;;;;5034672;28;20083;-85
2021/08/16 04:15:31;;;;;;;12.63;8.60;;;487.30;2380.80;;;;;;5034203;28;20029;-84
2021/08/16 04:17:57;;;;;;;19.63;10.07;;;487.20;2380.80;;;;;;5034823;28;20034;-84
2021/08/16 04:20:23;;;;;;;15.40;9.48;;;487.30;2380.80;;;;;;5034868;28;20455;-85
2021/08/16 04:22:49;;;;;;;16.67;9.18;;;512.10;2380.80;;;;;;5035758;28;20097;-84
2021/08/16 04:25:18;;;;;;;17.83;9.57;;;512.30;2380.80;;;;;;5034419;28;20426;-85
2021/08/16 04:27:44;;;;;;;17.23;9.77;;;512.40;2380.80;;;;;;5034468;28;20021;-84
2021/08/16 04:30:13;;;;;;;14.35;9.13;;;512.50;2380.80;;;;;;5034506;28;20119;-84
2021/08/16 04:32:39;;;;;;;13.02;9.73;;;512.60;2380.80;;;;;;5034477;28;20159;-86
2021/08/16 04:35:05;;;;;;;13.90;10.27;;;512.80;2380.80;;;;;;5034339;28;20029;-86
2021/08/16 04:37:35;;;;;;;12.07;9.07;;;512.80;2380.80;;;;;;5034199;28;20036;-87
2021/08/16 04:40:01;;;;;;;14.05;9.52;;;537.60;2406.40;;;;;;5034223;28;20025;-85
2021/08/16 04:42:27;;;;;;;20.13;10.75;;;537.90;2406.40;;;;;;5034156;28;20024;-84
2021/08/16 04:44:53;;;;;;;19.77;13.65;;;537.80;2406.40;;;;;;5035589;28;20033;-84
2021/08/16 04:47:18;;;;;;;18.00;13.50;;;512.80;2380.80;;;;;;5034934;28;20076;-85
2021/08/16 04:49:44;;;;;;;16.48;11.80;;;512.60;2380.80;;;;;;5034680;28;20087;-86
2021/08/16 04:52:10;;;;;;;18.75;10.20;;;512.70;2380.80;;;;;;5017565;28;20022;-84
2021/08/16 04:54:36;;;;;;;13.65;9.30;;;512.80;2380.80;;;;;;5017284;28;20087;-84
2021/08/16 04:57:02;;;;;;;14.48;9.13;;;537.60;2406.40;;;;;;5017542;28;20044;-85
2021/08/16 04:59:27;;;;;;;18.73;9.43;;;537.60;2406.40;;;;;;5017260;28;20031;-84
2021/08/16 05:01:53;;;;;;;11.32;8.60;;;537.80;2406.40;;;;;;5017200;28;20025;-83
2021/08/16 05:04:19;;;;;;;13.25;8.65;;;537.70;2406.40;;;;;;5016901;28;20055;-84
2021/08/16 05:06:46;;;;;;;16.70;9.35;;;537.80;2406.40;;;;;;5017359;28;20463;-84
2021/08/16 05:09:12;;;;;;;17.60;10.02;;;537.80;2406.40;;;;;;5017315;28;20021;-84
2021/08/16 05:11:38;;;;;;;22.17;10.60;;;537.80;2406.40;;;;;;5017339;28;20112;-84
2021/08/16 05:14:04;;;;;;;22.70;9.50;;;512.90;2380.80;;;;;;5017656;28;20207;-85
2021/08/16 05:16:30;;;;;;;17.45;9.65;;;512.80;2380.80;;;;;;5017080;28;20044;-84
2021/08/16 05:18:56;;;;;;;15.93;10.32;;;512.90;2380.80;;;;;;5017191;28;20026;-84
2021/08/16 05:21:23;;;;;;;13.95;9.43;;;512.90;2380.80;;;;;;5016955;28;20116;-84
2021/08/16 05:23:49;;;;;;;18.45;9.43;;;512.80;2380.80;;;;;;5016775;28;20025;-84
2021/08/16 05:26:15;;;;;;;14.85;9.98;;;512.90;2380.80;;;;;;5022580;28;20022;-83
2021/08/16 05:28:42;;;;;;;19.08;10.85;;;512.80;2380.80;;;;;;5025653;28;20021;-83
2021/08/16 05:31:08;;;;;;;16.15;9.73;;;512.90;2380.80;;;;;;5025766;28;20021;-83
2021/08/16 05:33:33;;;;;;;18.17;11.38;;;537.60;2406.40;;;;;;5034587;28;20032;-84
2021/08/16 05:35:59;;;;;;;20.17;10.38;;;512.90;2380.80;;;;;;5016666;28;20025;-83
2021/08/16 05:38:25;;;;;;;15.98;10.02;;;537.60;2406.40;;;;;;5016852;28;20021;-84
2021/08/16 05:40:51;;;;;;;14.88;10.65;;;537.80;2406.40;;;;;;5016600;28;20017;-84
2021/08/16 05:43:16;;;;;;;13.57;9.77;;;538.00;2406.40;;;;;;5016710;28;20371;-84
2021/08/16 05:45:42;;;;;;;13.40;9.35;;;538.00;2406.40;;;;;;5016537;28;20022;-83
2021/08/16 05:48:08;;;;;;;16.17;9.52;;;538.00;2406.40;;;;;;5023407;28;20048;-84
2021/08/16 05:50:34;;;;;;;13.77;8.80;;;538.00;2406.40;;;;;;5033363;28;20021;-85
2021/08/16 05:53:00;;;;;;;14.30;9.05;;;538.20;2406.40;;;;;;5032790;28;20021;-82
2021/08/16 05:55:26;;;;;;;12.52;9.25;;;538.40;2406.40;;;;;;5032804;28;20029;-81
2021/08/16 05:57:51;;;;;;;13.90;8.50;;;563.20;2432.00;;;;;;5033062;28;20438;-81
2021/08/16 06:00:19;;;;;;;12.85;9.10;;;563.30;2432.00;;;;;;5035344;28;20053;-82
2021/08/16 06:02:45;;;;;;;13.32;9.68;;;563.20;2432.00;;;;;;5037057;28;20033;-81
2021/08/16 06:05:11;;;;;;;16.00;10.02;;;563.70;2432.00;;;;;;5037015;28;20029;-80
2021/08/16 06:07:37;;;;;;;14.82;9.00;;;563.40;2432.00;;;;;;5036815;28;20025;-81
2021/08/16 06:10:08;;;;;;;18.33;9.88;;;563.50;2432.00;;;;;;5037104;28;20033;-82
2021/08/16 06:12:34;;;;;;;13.20;8.40;;;563.60;2432.00;;;;;;5040367;28;20100;-83
2021/08/16 06:15:00;;;;;;;22.35;8.90;;;563.70;2432.00;;;;;;5039545;28;20107;-82
2021/08/16 06:17:26;;;;;;;12.43;8.73;;;563.90;2432.00;;;;;;5037751;28;20026;-83
2021/08/16 06:19:51;;;;;;;13.43;8.98;;;563.90;2432.00;;;;;;5037008;28;20025;-85
2021/08/16 06:22:17;;;;;;;13.82;9.00;;;564.00;2432.00;;;;;;5036870;28;20030;-83
2021/08/16 06:24:43;;;;;;;13.35;9.23;;;564.10;2432.00;;;;;;5036992;28;20088;-84
2021/08/16 06:27:09;;;;;;;17.27;9.45;;;564.10;2432.00;;;;;;5036972;28;20048;-83
2021/08/16 06:29:35;;;;;;;15.25;8.70;;;588.90;2432.00;;;;;;5036758;28;20026;-83
2021/08/16 06:32:00;;;;;;;16.65;8.65;;;588.90;2432.00;;;;;;5037254;28;20079;-83
2021/08/16 06:34:26;;;;;;;13.75;8.75;;;589.00;2432.00;;;;;;5036116;28;20421;-83
2021/08/16 06:36:55;;;;;;;12.60;8.90;;;589.20;2432.00;;;;;;5036327;28;20047;-83
2021/08/16 06:39:23;;;;;;;15.70;8.07;;;589.20;2432.00;;;;;;5036523;28;20087;-84
2021/08/16 06:41:54;;;;;;;12.82;9.05;;;589.30;2432.00;;;;;;5037421;28;20096;-84
2021/08/16 06:44:22;;;;;;;11.70;8.50;;;589.60;2432.00;;;;;;5036070;28;20055;-85
2021/08/16 06:46:48;;;;;;;15.57;8.43;;;614.90;2432.00;;;;;;5035783;28;20061;-83
2021/08/16 06:49:14;;;;;;;13.00;8.65;;;614.50;2432.00;;;;;;5035069;28;20065;-84
2021/08/16 06:51:41;;;;;;;15.65;9.68;;;614.60;2432.00;;;;;;5036160;28;20029;-84
2021/08/16 06:54:06;;;;;;;19.27;11.35;;;614.70;2432.00;;;;;;5036350;28;20467;-85
2021/08/16 06:56:33;;;;;;;16.30;10.60;;;614.90;2432.00;;;;;;5036154;28;20025;-84
2021/08/16 06:58:58;;;;;;;13.80;10.40;;;615.00;2432.00;;;;;;5035986;28;20032;-84
2021/08/16 07:01:26;;;;;;;16.35;10.10;;;615.20;2432.00;;;;;;5035478;28;20025;-83
2021/08/16 07:03:53;;;;;;;12.75;9.82;;;615.30;2432.00;;;;;;5035707;28;20068;-83
2021/08/16 07:06:19;;;;;;;13.40;10.13;;;640.00;2432.00;;;;;;5035822;28;20526;-83
2021/08/16 07:08:45;;;;;;;9.98;7.80;;;640.10;2432.00;;;;;;5035995;28;20362;-84
2021/08/16 07:11:11;;;;;;;16.15;9.85;;;640.30;2406.40;;;;;;5035135;28;20114;-84
2021/08/16 07:13:37;;;;;;;10.63;8.40;;;640.40;2380.80;;;;;;5036023;28;20060;-85
2021/08/16 07:16:04;;;;;;;14.00;8.95;;;640.50;2380.80;;;;;;5035945;28;20437;-83
2021/08/16 07:18:30;;;;;;;12.82;7.57;;;640.90;2355.20;;;;;;5035911;28;20079;-83
2021/08/16 07:20:55;;;;;;;11.27;7.93;;;640.80;2355.20;;;;;;5035821;28;20025;-82
2021/08/16 07:23:21;;;;;;;12.10;8.20;;;640.80;2329.60;;;;;;5035451;28;20018;-85
2021/08/16 07:25:47;;;;;;;10.10;7.43;;;640.90;2329.60;;;;;;5035698;28;20029;-84
2021/08/16 07:28:13;;;;;;;11.90;7.45;;;665.80;2329.60;;;;;;5036025;28;20355;-82
2021/08/16 07:30:39;;;;;;;10.57;7.18;;;665.90;2304.00;;;;;;5035515;28;20024;-83
2021/08/16 07:33:05;;;;;;;15.32;7.28;;;666.30;2329.60;;;;;;5035742;28;20029;-84
2021/08/16 07:35:31;;;;;;;10.77;7.68;;;666.30;2278.40;;;;;;5035406;28;20029;-83
2021/08/16 07:37:57;;;;;;;11.23;7.57;;;666.50;2278.40;;;;;;5035790;28;20520;-85
2021/08/16 07:40:24;;;;;;;16.40;8.48;;;691.20;2252.80;;;;;;5035777;28;20021;-83
2021/08/16 07:42:50;;;;;;;10.65;7.47;;;691.40;2252.80;;;;;;5035694;28;20029;-84
2021/08/16 07:45:16;;;;;;;13.25;10.20;;;691.60;2252.80;;;;;;5035662;28;20025;-84
2021/08/16 07:47:42;;;;;;;12.98;10.18;;;691.70;2227.20;;;;;;5035862;28;20042;-83
2021/08/16 07:50:10;;;;;;;22.77;12.02;;;691.90;2227.20;;;;;;5035396;28;20044;-83
2021/08/16 07:52:41;;;;;;;14.38;7.20;;;692.00;2227.20;;;;;;5035468;28;20087;-83
2021/08/16 07:55:08;;;;;;;11.88;7.78;;;692.10;2150.40;;;;;;5036515;28;20447;-85
2021/08/16 07:57:34;;;;;;;13.27;9.15;;;716.80;2176.00;;;;;;5036382;28;20037;-82
2021/08/16 08:00:00;;;;;;;16.27;9.73;;;716.90;2176.00;;;;;;5036307;28;20117;-82
2021/08/16 08:02:37;;;;;;;12.75;8.57;;;717.20;2176.00;;;;;;5036587;28;20052;-82
2021/08/16 08:05:07;;;;;;;10.85;7.30;;;717.40;2150.40;;;;;;5036946;28;20049;-83
2021/08/16 08:07:33;;;;;;;11.07;7.13;;;717.20;2150.40;;;;;;5036193;28;20013;-84
2021/08/16 08:09:59;;;;;;;10.88;7.97;;;717.20;2150.40;;;;;;5036503;28;20018;-84
2021/08/16 08:12:24;;;;;;;11.40;6.53;;;717.50;2150.40;;;;;;5036339;28;20040;-83
2021/08/16 08:14:50;;;;;;;10.98;6.45;;;717.40;2124.80;;;;;;5036479;28;20463;-84
2021/08/16 08:17:16;;;;;;;11.15;7.60;;;717.40;2099.20;;;;;;5036183;28;20029;-84
2021/08/16 08:19:42;;;;;;;9.13;7.60;;;717.50;2099.20;;;;;;5035024;28;20032;-84
2021/08/16 08:22:08;;;;;;;14.82;7.13;;;742.40;2124.80;;;;;;5034123;28;20025;-84
2021/08/16 08:24:33;;;;;;;11.52;6.55;;;742.40;2124.80;;;;;;5033927;28;20087;-83
2021/08/16 08:26:59;;;;;;;10.50;7.43;;;;;;;;;;5034617;28;20021;-85
2021/08/16 08:29:26;;;;;;;8.43;6.05;;;;;;;;;;5034535;28;20036;-81
2021/08/16 08:31:52;;;;;;;9.63;6.80;;;;;;;;;;5034410;28;20022;-83
2021/08/16 08:34:17;;;;;;;12.90;7.85;;;743.10;2073.60;;;;;;5034214;28;20340;-83
2021/08/16 08:36:44;;;;;;;20.27;9.00;;;743.10;2048.00;;;;;;5034300;28;20033;-82
2021/08/16 08:39:10;;;;;;;9.88;7.28;;;;;;;;;;5034099;28;20021;-80
2021/08/16 08:41:37;;;;;;;11.45;6.93;;;768.50;2022.40;;;;;;5033581;28;20021;-79
2021/08/16 08:44:09;;;;;;;10.05;7.68;;;768.50;2022.40;;;;;;5033750;28;20025;-82
2021/08/16 08:46:40;;;;;;;7.68;6.88;;;768.70;1996.80;;;;;;5033522;28;20025;-83
2021/08/16 08:49:08;;;;;;;13.00;6.93;;;793.70;1971.20;;;;;;5034053;28;20049;-83
2021/08/16 08:51:37;;;;;;;8.18;6.82;;;793.60;1971.20;;;;;;5034219;28;20496;-83
2021/08/16 08:54:07;;;;;;;9.23;6.03;;;793.70;1971.20;;;;;;5033373;28;20025;-84
2021/08/16 08:56:33;;;;;;;12.68;7.38;;;793.80;1945.60;;;;;;5033512;28;20026;-84
2021/08/16 08:58:59;;;;;;;11.50;7.05;;;794.00;1920.00;;;;;;5033852;28;20116;-83
2021/08/16 09:01:27;;;;;;;12.18;8.23;;;794.30;1920.00;;;;;;5033804;28;20518;-84
2021/08/16 09:03:55;;;;;;;12.57;7.57;;;819.30;1920.00;;;;;;5034003;28;20513;-85
2021/08/16 09:06:28;;;;;;;11.75;6.53;;;819.30;1894.40;;;;;;5033995;28;20017;-84
2021/08/16 09:08:54;;;;;;;9.73;6.50;;;819.50;1868.80;;;;;;5034508;28;20424;-83
2021/08/16 09:11:19;;;;;;;8.85;6.18;;;819.60;1868.80;;;;;;5033817;28;20056;-85
2021/08/16 09:14:11;;;;;;;9.18;6.10;;;819.50;1843.20;;;;;;5033968;28;20513;-83
2021/08/16 09:16:39;;;;;;;;;;;819.70;1817.60;;;;;;5032765;28;20069;-83
2021/08/16 09:19:19;;;;;;;8.85;7.00;;;819.80;1817.60;;;;;;5034401;28;19971;-83
2021/08/16 09:21:54;;;;;;;8.73;6.75;;;820.00;1817.60;;;;;;5034209;28;20131;-83
2021/08/16 09:24:24;;;;;;;8.82;6.50;;;844.80;1843.20;;;;;;5033898;28;20029;-84
2021/08/16 09:26:51;;;;;;;13.10;7.18;;;844.90;1817.60;;;;;;5034901;28;20092;-84
2021/08/16 09:29:19;;;;;;;11.05;5.63;;;845.00;1792.00;;;;;;5034001;28;20022;-84
2021/08/16 09:32:05;;;;;;;8.60;6.15;;;845.10;1766.40;;;;;;5033528;28;20057;-83
2021/08/16 09:34:34;;;;;;;9.20;5.65;;;845.40;1792.00;;;;;;5032673;28;20033;-83
2021/08/16 09:37:01;;;;;;;11.02;6.40;;;845.20;1792.00;;;;;;5033935;28;20095;-84
2021/08/16 09:39:31;;;;;;;9.80;6.32;;;845.40;1740.80;;;;;;5034710;28;20132;-82
2021/08/16 09:41:59;;;;;;;8.45;5.85;;;845.70;1740.80;;;;;;5034119;28;20022;-84
2021/08/16 09:44:26;;;;;;;9.27;6.32;;;870.50;1715.20;;;;;;5033447;28;20124;-83
2021/08/16 09:47:03;;;;;;;8.15;6.00;;;870.70;1715.20;;;;;;5033959;28;20027;-82
2021/08/16 09:49:29;;;;;;;10.50;8.13;;;870.80;1689.60;;;;;;5016695;28;20051;-84
2021/08/16 09:52:07;;;;;;;13.88;9.30;;;870.90;1689.60;;;;;;5035216;28;20021;-82
2021/08/16 09:54:37;;;;;;;10.13;6.93;;;871.10;1664.00;;;;;;5017910;28;20025;-83
2021/08/16 09:57:05;;;;;;;8.52;6.95;;;871.10;1638.40;;;;;;5017083;28;20124;-85
2021/08/16 09:59:36;;;;;;;9.23;6.72;;;871.30;1638.40;;;;;;5020394;28;20022;-84
2021/08/16 10:02:02;;;;;;;6.60;5.73;;;896.20;1612.80;;;;;;5038934;28;20059;-80
2021/08/16 10:04:32;;;;;;;7.32;5.93;;;896.50;1612.80;;;;;;5039725;28;20269;-80
2021/08/16 10:06:59;;;;;;;11.30;6.57;;;;;;;;;;5040142;28;20136;-83
2021/08/16 10:09:25;;;;;;;10.00;6.90;;;921.60;1561.60;;;;;;5039023;28;20006;-81
2021/08/16 10:11:53;;;;;;;10.10;7.50;;;921.70;1587.20;;;;;;5037539;28;20028;-82
2021/08/16 10:14:25;;;;;;;13.57;9.23;;;921.80;1561.60;;;;;;5037290;28;20080;-80
2021/08/16 10:16:53;;;;;;;11.25;7.70;;;922.00;1536.00;;;;;;5024246;28;20025;-84
2021/08/16 10:19:21;;;;;;;12.50;6.95;;;;;;;;;;5021131;28;20021;-83
2021/08/16 10:21:48;;;;;;;8.05;5.88;;;922.40;1484.80;;;;;;5039252;28;20024;-84
2021/08/16 10:24:19;;;;;;;9.23;5.72;;;922.50;1459.20;;;;;;5020821;28;20072;-85
2021/08/16 10:27:05;;;;;;;10.07;6.43;;;922.50;1459.20;;;;;;5019585;28;20032;-82
2021/08/16 10:29:32;;;;;;;12.77;8.30;;;922.50;1459.20;;;;;;5019232;28;20025;-87
2021/08/16 10:32:00;;;;;;;8.63;6.13;;;947.50;1433.60;;;;;;5018012;28;20067;-82
2021/08/16 10:34:36;;;;;;;10.52;6.82;;;947.70;1433.60;;;;;;5016329;28;20029;-83
2021/08/16 10:37:10;;;;;;;7.25;6.53;;;947.70;1433.60;;;;;;5016465;28;20477;-84
2021/08/16 10:39:45;;;;;;;10.20;5.80;;;947.80;1408.00;;;;;;5016198;28;20171;-83
2021/08/16 10:42:15;;;;;;;10.95;6.65;;;;;;;;;;5016266;28;20478;-83
2021/08/16 10:44:46;;;;;;;11.57;5.82;;;;;;;;;;5015953;28;20044;-83
2021/08/16 10:47:29;;;;;;;7.88;6.00;;;973.00;1382.40;;;;;;5018663;28;20064;-84
2021/08/16 10:50:10;;;;;;;7.05;5.53;;;972.80;1382.40;;;;;;5019318;28;20026;-83
2021/08/16 10:52:38;;;;;;;9.70;6.50;;;972.80;1382.40;;;;;;5019045;28;20377;-82
2021/08/16 10:55:16;;;;;;;9.30;5.47;;;973.00;1331.20;;;;;;5018962;28;20061;-81
2021/08/16 10:57:44;;;;;;;8.43;5.53;;;973.10;1356.80;;;;;;5024655;28;20022;-82
2021/08/16 11:00:13;;;;;;;8.00;6.93;;;973.20;1331.20;;;;;;5018951;28;20040;-85
2021/08/16 11:02:41;;;;;;;9.48;6.93;;;973.30;1331.20;;;;;;5011151;28;20103;-80
2021/08/16 11:05:08;;;;;;;9.85;6.75;;;973.70;1305.60;;;;;;5018950;28;20036;-81
2021/08/16 11:07:34;;;;;;;8.18;5.75;;;973.70;1305.60;;;;;;5018546;28;20048;-84
2021/08/16 11:10:09;;;;;;;8.93;6.20;;;973.40;1305.60;;;;;;5018982;28;20396;-82
2021/08/16 11:12:42;;;;;;;11.52;7.70;;;973.70;1305.60;;;;;;5018975;28;20017;-83
2021/08/16 11:15:10;;;;;;;11.30;6.55;;;998.40;1305.60;;;;;;5018259;28;20030;-85
2021/08/16 11:17:36;;;;;;;11.18;7.05;;;973.70;1280.00;;;;;;5018644;28;20107;-83
2021/08/16 11:20:05;;;;;;;8.73;7.20;;;998.60;1305.60;;;;;;5018676;28;20443;-83
2021/08/16 11:22:31;;;;;;;10.13;9.00;;;998.60;1280.00;;;;;;5018801;28;20108;-83
2021/08/16 11:25:04;;;;;;;7.47;6.18;;;998.80;1305.60;;;;;;5019046;28;20482;-84
2021/08/16 11:27:30;;;;;;;10.15;7.30;;;998.80;1280.00;;;;;;5018514;28;20112;-85
2021/08/16 11:30:06;;;;;;;8.43;5.93;;;998.90;1254.40;;;;;;5018318;28;20105;-84
2021/08/16 11:32:33;;;;;;;15.32;7.65;;;999.00;1254.40;;;;;;5018899;28;20097;-85
2021/08/16 11:34:59;;;;;;;15.65;11.18;;;999.30;1254.40;;;;;;5018117;28;20026;-82
2021/08/16 11:37:34;;;;;;;9.75;6.35;;;999.30;1254.40;;;;;;5018224;28;20035;-81
2021/08/16 11:40:01;;;;;;;8.38;6.38;;;1024.00;1254.40;;;;;;5018433;28;20363;-84
2021/08/16 11:42:27;;;;;;;10.98;7.22;;;1024.00;1228.80;;;;;;5036045;28;20471;-83
2021/08/16 11:45:00;;;;;;;8.65;6.35;;;1024.30;1254.40;;;;;;5018192;28;20529;-84
2021/08/16 11:47:30;;;;;;;11.20;7.05;;;1024.00;1203.20;;;;;;5018575;28;20041;-84
2021/08/16 11:50:09;;;;;;;8.10;5.88;;;1024.30;1228.80;;;;;;5019037;28;20028;-85
2021/08/16 11:52:35;;;;;;;12.52;9.32;;;1024.50;1203.20;;;;;;5019412;28;20138;-86
2021/08/16 11:55:05;;;;;;;10.38;6.20;;;1024.50;1228.80;;;;;;5018719;28;20028;-83
2021/08/16 11:57:32;;;;;;;7.50;6.07;;;1024.50;1203.20;;;;;;5017727;28;20041;-83
2021/08/16 11:59:59;;;;;;;9.85;6.80;;;1024.50;1203.20;;;;;;5019471;28;20014;-87
2021/08/16 12:02:29;;;;;;;9.63;6.90;;;1024.90;1203.20;;;;;;5036256;28;20021;-86
2021/08/16 12:04:56;;;;;;;9.13;6.90;;;1049.60;1203.20;;;;;;5018923;28;20029;-86
2021/08/16 12:07:26;;;;;;;10.13;7.28;;;1049.70;1203.20;;;;;;5018686;28;20028;-87
2021/08/16 12:09:53;;;;;;;8.57;6.60;;;1049.70;1203.20;;;;;;5019436;28;20021;-86
2021/08/16 12:12:21;;;;;;;10.00;6.07;;;1049.60;1203.20;;;;;;5019928;28;20079;-85
2021/08/16 12:14:58;;;;;;;14.50;6.60;;;1049.60;1203.20;;;;;;5020174;28;20029;-86